sensor_id;sensor_type;location;lat;lon;timestamp;temperature;humidity
32614;DHT22;19031;51.400;6.770;2023-09-19T00:00:30;16.30;99.90
32614;DHT22;19031;51.400;6.770;2023-09-19T00:02:58;16.20;99.90
32614;DHT22;19031;51.400;6.770;2023-09-19T00:05:33;16.20;99.90
32614;DHT22;19031;51.400;6.770;2023-09-19T00:08:00;16.10;99.90
32614;DHT22;19031;51.400;6.770;2023-09-19T00:10:27;16.20;99.90
32614;DHT22;19031;51.400;6.770;2023-09-19T00:12:57;16.10;99.90
32614;DHT22;19031;51.400;6.770;2023-09-19T00:15:24;16.10;99.90
32614;DHT22;19031;51.400;6.770;2023-09-19T00:17:51;16.00;99.90
32614;DHT22;19031;51.400;6.770;2023-09-19T00:20:20;15.90;99.90
32614;DHT22;19031;51.400;6.770;2023-09-19T00:22:49;15.90;99.90
32614;DHT22;19031;51.400;6.770;2023-09-19T00:25:16;15.80;99.90
32614;DHT22;19031;51.400;6.770;2023-09-19T00:27:41;15.90;99.90
32614;DHT22;19031;51.400;6.770;2023-09-19T00:30:11;15.80;99.90
32614;DHT22;19031;51.400;6.770;2023-09-19T00:32:45;15.80;99.90
32614;DHT22;19031;51.400;6.770;2023-09-19T00:35:13;15.80;99.90
32614;DHT22;19031;51.400;6.770;2023-09-19T00:37:40;15.80;99.90
32614;DHT22;19031;51.400;6.770;2023-09-19T00:40:09;15.70;99.90
32614;DHT22;19031;51.400;6.770;2023-09-19T00:42:39;15.70;99.90
32614;DHT22;19031;51.400;6.770;2023-09-19T00:45:07;15.70;99.90
32614;DHT22;19031;51.400;6.770;2023-09-19T00:47:35;15.60;99.90
32614;DHT22;19031;51.400;6.770;2023-09-19T00:50:00;15.60;99.90
32614;DHT22;19031;51.400;6.770;2023-09-19T00:52:27;15.60;99.90
32614;DHT22;19031;51.400;6.770;2023-09-19T00:54:53;15.60;99.90
32614;DHT22;19031;51.400;6.770;2023-09-19T00:57:20;15.50;99.90
32614;DHT22;19031;51.400;6.770;2023-09-19T00:59:48;15.50;99.90
32614;DHT22;19031;51.400;6.770;2023-09-19T01:02:16;15.50;99.90
32614;DHT22;19031;51.400;6.770;2023-09-19T01:04:42;15.50;99.90
32614;DHT22;19031;51.400;6.770;2023-09-19T01:07:08;15.50;99.90
32614;DHT22;19031;51.400;6.770;2023-09-19T01:09:35;15.40;99.90
32614;DHT22;19031;51.400;6.770;2023-09-19T01:12:02;15.40;99.90
32614;DHT22;19031;51.400;6.770;2023-09-19T01:14:42;15.40;99.90
32614;DHT22;19031;51.400;6.770;2023-09-19T01:17:32;15.40;99.90
32614;DHT22;19031;51.400;6.770;2023-09-19T01:30:56;15.30;99.90
32614;DHT22;19031;51.400;6.770;2023-09-19T01:33:24;15.30;99.90
32614;DHT22;19031;51.400;6.770;2023-09-19T01:35:51;15.30;99.90
32614;DHT22;19031;51.400;6.770;2023-09-19T01:38:18;15.30;99.90
32614;DHT22;19031;51.400;6.770;2023-09-19T01:40:54;15.30;99.90
32614;DHT22;19031;51.400;6.770;2023-09-19T01:43:33;15.30;99.90
32614;DHT22;19031;51.400;6.770;2023-09-19T01:46:16;15.30;99.90
32614;DHT22;19031;51.400;6.770;2023-09-19T01:48:45;15.30;99.90
32614;DHT22;19031;51.400;6.770;2023-09-19T01:51:15;15.30;99.90
32614;DHT22;19031;51.400;6.770;2023-09-19T01:54:02;15.40;99.90
32614;DHT22;19031;51.400;6.770;2023-09-19T01:56:56;15.30;99.90
32614;DHT22;19031;51.400;6.770;2023-09-19T01:59:31;15.40;99.90
32614;DHT22;19031;51.400;6.770;2023-09-19T02:02:00;15.30;99.90
32614;DHT22;19031;51.400;6.770;2023-09-19T02:04:26;15.30;99.90
32614;DHT22;19031;51.400;6.770;2023-09-19T02:06:53;15.20;99.90
32614;DHT22;19031;51.400;6.770;2023-09-19T02:09:18;15.30;99.90
32614;DHT22;19031;51.400;6.770;2023-09-19T02:11:44;15.30;99.90
32614;DHT22;19031;51.400;6.770;2023-09-19T02:14:10;15.30;99.90
32614;DHT22;19031;51.400;6.770;2023-09-19T02:16:35;15.30;99.90
32614;DHT22;19031;51.400;6.770;2023-09-19T02:19:01;15.30;99.90
32614;DHT22;19031;51.400;6.770;2023-09-19T02:21:30;15.30;99.90
32614;DHT22;19031;51.400;6.770;2023-09-19T02:23:57;15.30;99.90
32614;DHT22;19031;51.400;6.770;2023-09-19T02:26:22;15.30;99.90
32614;DHT22;19031;51.400;6.770;2023-09-19T02:28:48;15.30;99.90
32614;DHT22;19031;51.400;6.770;2023-09-19T02:31:14;15.30;99.90
32614;DHT22;19031;51.400;6.770;2023-09-19T02:33:42;15.30;99.90
32614;DHT22;19031;51.400;6.770;2023-09-19T02:36:07;15.30;99.90
32614;DHT22;19031;51.400;6.770;2023-09-19T02:38:34;15.20;99.90
32614;DHT22;19031;51.400;6.770;2023-09-19T02:40:59;15.30;99.90
32614;DHT22;19031;51.400;6.770;2023-09-19T02:43:25;15.30;99.90
32614;DHT22;19031;51.400;6.770;2023-09-19T02:45:51;15.30;99.90
32614;DHT22;19031;51.400;6.770;2023-09-19T02:48:19;15.20;99.90
32614;DHT22;19031;51.400;6.770;2023-09-19T02:50:45;15.20;99.90
32614;DHT22;19031;51.400;6.770;2023-09-19T02:53:11;15.30;99.90
32614;DHT22;19031;51.400;6.770;2023-09-19T02:55:38;15.20;99.90
32614;DHT22;19031;51.400;6.770;2023-09-19T02:58:06;15.20;99.90
32614;DHT22;19031;51.400;6.770;2023-09-19T03:00:33;15.20;99.90
32614;DHT22;19031;51.400;6.770;2023-09-19T03:03:01;15.20;99.90
32614;DHT22;19031;51.400;6.770;2023-09-19T03:05:27;15.20;99.90
32614;DHT22;19031;51.400;6.770;2023-09-19T03:07:56;15.20;99.90
32614;DHT22;19031;51.400;6.770;2023-09-19T03:10:22;15.20;99.90
32614;DHT22;19031;51.400;6.770;2023-09-19T03:12:50;15.20;99.90
32614;DHT22;19031;51.400;6.770;2023-09-19T03:15:16;15.20;99.90
32614;DHT22;19031;51.400;6.770;2023-09-19T03:17:47;15.10;99.90
32614;DHT22;19031;51.400;6.770;2023-09-19T03:20:13;15.10;99.90
32614;DHT22;19031;51.400;6.770;2023-09-19T03:22:39;15.10;99.90
32614;DHT22;19031;51.400;6.770;2023-09-19T03:25:06;15.10;99.90
32614;DHT22;19031;51.400;6.770;2023-09-19T03:27:37;15.10;99.90
32614;DHT22;19031;51.400;6.770;2023-09-19T03:30:04;15.10;99.90
32614;DHT22;19031;51.400;6.770;2023-09-19T03:32:43;15.10;99.90
32614;DHT22;19031;51.400;6.770;2023-09-19T03:35:08;15.00;99.90
32614;DHT22;19031;51.400;6.770;2023-09-19T03:37:40;15.00;99.90
32614;DHT22;19031;51.400;6.770;2023-09-19T03:40:07;15.00;99.90
32614;DHT22;19031;51.400;6.770;2023-09-19T03:42:33;14.90;99.90
32614;DHT22;19031;51.400;6.770;2023-09-19T03:45:01;14.90;99.90
32614;DHT22;19031;51.400;6.770;2023-09-19T03:47:29;14.90;99.90
32614;DHT22;19031;51.400;6.770;2023-09-19T03:49:55;14.80;99.90
32614;DHT22;19031;51.400;6.770;2023-09-19T03:52:20;14.80;99.90
32614;DHT22;19031;51.400;6.770;2023-09-19T03:54:46;14.80;99.90
32614;DHT22;19031;51.400;6.770;2023-09-19T03:57:11;14.80;99.90
32614;DHT22;19031;51.400;6.770;2023-09-19T03:59:38;14.80;99.90
32614;DHT22;19031;51.400;6.770;2023-09-19T04:02:03;14.80;99.90
32614;DHT22;19031;51.400;6.770;2023-09-19T04:04:30;14.70;99.90
32614;DHT22;19031;51.400;6.770;2023-09-19T04:06:55;14.70;99.90
32614;DHT22;19031;51.400;6.770;2023-09-19T04:09:21;14.70;99.90
32614;DHT22;19031;51.400;6.770;2023-09-19T04:11:47;14.60;99.90
32614;DHT22;19031;51.400;6.770;2023-09-19T04:14:12;14.70;99.90
32614;DHT22;19031;51.400;6.770;2023-09-19T04:16:38;14.70;99.90
32614;DHT22;19031;51.400;6.770;2023-09-19T04:19:04;14.70;99.90
32614;DHT22;19031;51.400;6.770;2023-09-19T04:21:30;14.70;99.90
32614;DHT22;19031;51.400;6.770;2023-09-19T04:23:56;14.60;99.90
32614;DHT22;19031;51.400;6.770;2023-09-19T04:26:22;14.60;99.90
32614;DHT22;19031;51.400;6.770;2023-09-19T04:28:47;14.60;99.90
32614;DHT22;19031;51.400;6.770;2023-09-19T04:31:13;14.60;99.90
32614;DHT22;19031;51.400;6.770;2023-09-19T04:33:39;14.70;99.90
32614;DHT22;19031;51.400;6.770;2023-09-19T04:36:05;14.60;99.90
32614;DHT22;19031;51.400;6.770;2023-09-19T04:38:33;14.70;99.90
32614;DHT22;19031;51.400;6.770;2023-09-19T04:40:58;14.70;99.90
32614;DHT22;19031;51.400;6.770;2023-09-19T04:43:25;14.60;99.90
32614;DHT22;19031;51.400;6.770;2023-09-19T04:45:50;14.70;99.90
32614;DHT22;19031;51.400;6.770;2023-09-19T04:48:19;14.70;99.90
32614;DHT22;19031;51.400;6.770;2023-09-19T04:50:45;14.60;99.90
32614;DHT22;19031;51.400;6.770;2023-09-19T04:53:10;14.60;99.90
32614;DHT22;19031;51.400;6.770;2023-09-19T04:55:36;14.60;99.90
32614;DHT22;19031;51.400;6.770;2023-09-19T04:58:02;14.60;99.90
32614;DHT22;19031;51.400;6.770;2023-09-19T05:00:28;14.60;99.90
32614;DHT22;19031;51.400;6.770;2023-09-19T05:02:56;14.60;99.90
32614;DHT22;19031;51.400;6.770;2023-09-19T05:05:23;14.60;99.90
32614;DHT22;19031;51.400;6.770;2023-09-19T05:07:49;14.60;99.90
32614;DHT22;19031;51.400;6.770;2023-09-19T05:10:15;14.50;99.90
32614;DHT22;19031;51.400;6.770;2023-09-19T05:12:41;14.60;99.90
32614;DHT22;19031;51.400;6.770;2023-09-19T05:15:07;14.60;99.90
32614;DHT22;19031;51.400;6.770;2023-09-19T05:17:34;14.60;99.90
32614;DHT22;19031;51.400;6.770;2023-09-19T05:20:00;14.50;99.90
32614;DHT22;19031;51.400;6.770;2023-09-19T05:22:31;14.50;99.90
32614;DHT22;19031;51.400;6.770;2023-09-19T05:24:58;14.60;99.90
32614;DHT22;19031;51.400;6.770;2023-09-19T05:27:24;14.60;99.90
32614;DHT22;19031;51.400;6.770;2023-09-19T05:29:49;14.60;99.90
32614;DHT22;19031;51.400;6.770;2023-09-19T05:32:18;14.60;99.90
32614;DHT22;19031;51.400;6.770;2023-09-19T05:34:45;14.60;99.90
32614;DHT22;19031;51.400;6.770;2023-09-19T05:37:11;14.70;99.90
32614;DHT22;19031;51.400;6.770;2023-09-19T05:39:36;14.70;99.90
32614;DHT22;19031;51.400;6.770;2023-09-19T05:42:03;14.80;99.90
32614;DHT22;19031;51.400;6.770;2023-09-19T05:44:28;14.90;99.90
32614;DHT22;19031;51.400;6.770;2023-09-19T05:46:54;15.00;99.90
32614;DHT22;19031;51.400;6.770;2023-09-19T05:49:22;15.00;99.90
32614;DHT22;19031;51.400;6.770;2023-09-19T05:51:47;15.10;99.90
32614;DHT22;19031;51.400;6.770;2023-09-19T05:54:13;15.10;99.90
32614;DHT22;19031;51.400;6.770;2023-09-19T05:56:39;15.20;99.90
32614;DHT22;19031;51.400;6.770;2023-09-19T05:59:04;15.20;99.90
32614;DHT22;19031;51.400;6.770;2023-09-19T06:01:31;15.30;99.90
32614;DHT22;19031;51.400;6.770;2023-09-19T06:03:58;15.30;99.90
32614;DHT22;19031;51.400;6.770;2023-09-19T06:06:25;15.40;99.90
32614;DHT22;19031;51.400;6.770;2023-09-19T06:08:51;15.50;99.90
32614;DHT22;19031;51.400;6.770;2023-09-19T06:11:16;15.50;99.90
32614;DHT22;19031;51.400;6.770;2023-09-19T06:13:46;15.60;99.90
32614;DHT22;19031;51.400;6.770;2023-09-19T06:16:12;15.60;99.90
32614;DHT22;19031;51.400;6.770;2023-09-19T06:18:38;15.70;99.90
32614;DHT22;19031;51.400;6.770;2023-09-19T06:21:04;15.60;99.90
32614;DHT22;19031;51.400;6.770;2023-09-19T06:23:36;15.60;99.90
32614;DHT22;19031;51.400;6.770;2023-09-19T06:26:01;15.70;99.90
32614;DHT22;19031;51.400;6.770;2023-09-19T06:28:27;15.80;99.90
32614;DHT22;19031;51.400;6.770;2023-09-19T06:30:54;15.70;99.90
32614;DHT22;19031;51.400;6.770;2023-09-19T06:33:20;15.80;99.90
32614;DHT22;19031;51.400;6.770;2023-09-19T06:35:47;15.90;99.90
32614;DHT22;19031;51.400;6.770;2023-09-19T06:38:13;15.90;99.90
32614;DHT22;19031;51.400;6.770;2023-09-19T06:40:41;15.90;99.90
32614;DHT22;19031;51.400;6.770;2023-09-19T06:43:10;16.00;99.90
32614;DHT22;19031;51.400;6.770;2023-09-19T06:45:35;16.10;99.90
32614;DHT22;19031;51.400;6.770;2023-09-19T06:48:01;16.10;99.90
32614;DHT22;19031;51.400;6.770;2023-09-19T06:50:28;16.00;99.90
32614;DHT22;19031;51.400;6.770;2023-09-19T06:52:56;15.90;99.90
32614;DHT22;19031;51.400;6.770;2023-09-19T06:55:25;16.00;99.90
32614;DHT22;19031;51.400;6.770;2023-09-19T06:57:53;16.20;99.90
32614;DHT22;19031;51.400;6.770;2023-09-19T07:00:20;16.10;99.90
32614;DHT22;19031;51.400;6.770;2023-09-19T07:05:23;16.20;99.90
32614;DHT22;19031;51.400;6.770;2023-09-19T07:07:48;16.20;99.90
32614;DHT22;19031;51.400;6.770;2023-09-19T07:10:14;16.20;99.90
32614;DHT22;19031;51.400;6.770;2023-09-19T07:12:39;16.20;99.90
32614;DHT22;19031;51.400;6.770;2023-09-19T07:15:06;16.20;99.90
32614;DHT22;19031;51.400;6.770;2023-09-19T07:17:32;16.30;99.90
32614;DHT22;19031;51.400;6.770;2023-09-19T07:19:58;16.40;99.90
32614;DHT22;19031;51.400;6.770;2023-09-19T07:22:26;16.50;99.90
32614;DHT22;19031;51.400;6.770;2023-09-19T07:24:52;16.50;99.90
32614;DHT22;19031;51.400;6.770;2023-09-19T07:27:18;16.60;99.90
32614;DHT22;19031;51.400;6.770;2023-09-19T07:29:43;16.60;99.90
32614;DHT22;19031;51.400;6.770;2023-09-19T07:32:10;16.70;99.90
32614;DHT22;19031;51.400;6.770;2023-09-19T07:34:37;16.70;99.90
32614;DHT22;19031;51.400;6.770;2023-09-19T07:37:04;16.80;99.90
32614;DHT22;19031;51.400;6.770;2023-09-19T07:39:30;16.90;99.90
32614;DHT22;19031;51.400;6.770;2023-09-19T07:41:55;16.90;99.90
32614;DHT22;19031;51.400;6.770;2023-09-19T07:44:22;17.10;99.90
32614;DHT22;19031;51.400;6.770;2023-09-19T07:46:48;17.10;99.90
32614;DHT22;19031;51.400;6.770;2023-09-19T07:49:16;17.20;99.90
32614;DHT22;19031;51.400;6.770;2023-09-19T07:51:43;17.10;99.90
32614;DHT22;19031;51.400;6.770;2023-09-19T07:54:12;17.10;99.90
32614;DHT22;19031;51.400;6.770;2023-09-19T07:56:38;17.10;99.90
32614;DHT22;19031;51.400;6.770;2023-09-19T07:59:03;17.20;99.90
32614;DHT22;19031;51.400;6.770;2023-09-19T08:01:29;17.30;99.90
32614;DHT22;19031;51.400;6.770;2023-09-19T08:03:55;17.50;99.90
32614;DHT22;19031;51.400;6.770;2023-09-19T08:06:20;17.50;99.90
32614;DHT22;19031;51.400;6.770;2023-09-19T08:08:46;17.60;99.90
32614;DHT22;19031;51.400;6.770;2023-09-19T08:11:11;17.60;99.90
32614;DHT22;19031;51.400;6.770;2023-09-19T08:13:41;17.70;99.90
32614;DHT22;19031;51.400;6.770;2023-09-19T08:16:10;18.00;99.90
32614;DHT22;19031;51.400;6.770;2023-09-19T08:18:36;18.20;99.90
32614;DHT22;19031;51.400;6.770;2023-09-19T08:21:05;18.40;99.90
32614;DHT22;19031;51.400;6.770;2023-09-19T08:23:33;18.60;99.90
32614;DHT22;19031;51.400;6.770;2023-09-19T08:25:59;18.80;99.90
32614;DHT22;19031;51.400;6.770;2023-09-19T08:28:28;18.90;99.90
32614;DHT22;19031;51.400;6.770;2023-09-19T08:30:55;19.20;99.90
32614;DHT22;19031;51.400;6.770;2023-09-19T08:33:21;19.30;99.90
32614;DHT22;19031;51.400;6.770;2023-09-19T08:35:46;19.40;99.90
32614;DHT22;19031;51.400;6.770;2023-09-19T08:38:12;19.50;99.90
32614;DHT22;19031;51.400;6.770;2023-09-19T08:40:39;19.60;99.90
32614;DHT22;19031;51.400;6.770;2023-09-19T08:43:07;19.90;99.90
32614;DHT22;19031;51.400;6.770;2023-09-19T08:45:34;20.20;99.90
32614;DHT22;19031;51.400;6.770;2023-09-19T08:50:31;20.50;99.90
32614;DHT22;19031;51.400;6.770;2023-09-19T08:53:10;20.70;99.90
32614;DHT22;19031;51.400;6.770;2023-09-19T08:55:37;20.70;99.90
32614;DHT22;19031;51.400;6.770;2023-09-19T08:58:10;20.90;99.90
32614;DHT22;19031;51.400;6.770;2023-09-19T09:00:36;21.00;99.90
32614;DHT22;19031;51.400;6.770;2023-09-19T09:03:03;21.20;99.90
32614;DHT22;19031;51.400;6.770;2023-09-19T09:05:32;21.00;99.90
32614;DHT22;19031;51.400;6.770;2023-09-19T09:08:00;21.20;99.90
32614;DHT22;19031;51.400;6.770;2023-09-19T09:10:26;21.50;99.90
32614;DHT22;19031;51.400;6.770;2023-09-19T09:12:52;21.60;99.90
32614;DHT22;19031;51.400;6.770;2023-09-19T09:15:22;21.50;99.90
32614;DHT22;19031;51.400;6.770;2023-09-19T09:17:49;21.60;99.90
32614;DHT22;19031;51.400;6.770;2023-09-19T09:20:16;21.50;99.90
32614;DHT22;19031;51.400;6.770;2023-09-19T09:22:56;21.90;99.90
32614;DHT22;19031;51.400;6.770;2023-09-19T09:25:49;21.50;99.90
32614;DHT22;19031;51.400;6.770;2023-09-19T09:28:20;21.40;99.90
32614;DHT22;19031;51.400;6.770;2023-09-19T09:30:46;21.40;99.90
32614;DHT22;19031;51.400;6.770;2023-09-19T09:33:13;21.50;99.90
32614;DHT22;19031;51.400;6.770;2023-09-19T09:35:57;21.40;99.90
32614;DHT22;19031;51.400;6.770;2023-09-19T09:38:25;21.20;99.90
32614;DHT22;19031;51.400;6.770;2023-09-19T09:40:56;21.20;99.90
32614;DHT22;19031;51.400;6.770;2023-09-19T09:43:30;20.90;99.90
32614;DHT22;19031;51.400;6.770;2023-09-19T09:46:19;20.90;99.90
32614;DHT22;19031;51.400;6.770;2023-09-19T09:51:40;20.80;99.90
32614;DHT22;19031;51.400;6.770;2023-09-19T09:54:16;20.80;99.90
32614;DHT22;19031;51.400;6.770;2023-09-19T09:56:55;20.60;99.90
32614;DHT22;19031;51.400;6.770;2023-09-19T09:59:48;20.70;99.90
32614;DHT22;19031;51.400;6.770;2023-09-19T10:02:28;20.90;99.90
32614;DHT22;19031;51.400;6.770;2023-09-19T10:04:55;20.80;99.90
32614;DHT22;19031;51.400;6.770;2023-09-19T10:07:35;21.30;99.90
32614;DHT22;19031;51.400;6.770;2023-09-19T10:10:04;21.70;99.90
32614;DHT22;19031;51.400;6.770;2023-09-19T10:12:45;21.90;99.90
32614;DHT22;19031;51.400;6.770;2023-09-19T10:15:15;22.50;99.90
32614;DHT22;19031;51.400;6.770;2023-09-19T10:17:43;22.70;99.90
32614;DHT22;19031;51.400;6.770;2023-09-19T10:20:15;22.70;99.90
32614;DHT22;19031;51.400;6.770;2023-09-19T10:22:50;22.50;99.90
32614;DHT22;19031;51.400;6.770;2023-09-19T10:25:27;22.40;99.90
32614;DHT22;19031;51.400;6.770;2023-09-19T10:28:00;22.10;99.90
32614;DHT22;19031;51.400;6.770;2023-09-19T10:30:31;22.40;99.90
32614;DHT22;19031;51.400;6.770;2023-09-19T10:33:03;23.20;99.90
32614;DHT22;19031;51.400;6.770;2023-09-19T10:35:29;23.80;99.90
32614;DHT22;19031;51.400;6.770;2023-09-19T10:38:00;23.90;98.90
32614;DHT22;19031;51.400;6.770;2023-09-19T10:40:27;24.00;97.70
32614;DHT22;19031;51.400;6.770;2023-09-19T10:43:04;23.80;97.30
32614;DHT22;19031;51.400;6.770;2023-09-19T10:45:34;24.20;97.90
32614;DHT22;19031;51.400;6.770;2023-09-19T10:48:01;24.60;96.60
32614;DHT22;19031;51.400;6.770;2023-09-19T10:50:33;24.90;95.10
32614;DHT22;19031;51.400;6.770;2023-09-19T10:53:04;24.90;93.70
32614;DHT22;19031;51.400;6.770;2023-09-19T10:55:33;24.80;94.40
32614;DHT22;19031;51.400;6.770;2023-09-19T10:58:01;24.60;94.20
32614;DHT22;19031;51.400;6.770;2023-09-19T11:00:30;24.70;94.50
32614;DHT22;19031;51.400;6.770;2023-09-19T11:05:41;24.90;93.80
32614;DHT22;19031;51.400;6.770;2023-09-19T11:08:07;25.00;93.80
32614;DHT22;19031;51.400;6.770;2023-09-19T11:10:49;24.90;92.20
32614;DHT22;19031;51.400;6.770;2023-09-19T11:13:29;24.60;92.80
32614;DHT22;19031;51.400;6.770;2023-09-19T11:27:11;24.80;93.00
32614;DHT22;19031;51.400;6.770;2023-09-19T11:29:40;24.80;91.90
32614;DHT22;19031;51.400;6.770;2023-09-19T11:32:06;24.60;92.70
32614;DHT22;19031;51.400;6.770;2023-09-19T11:34:41;24.50;93.70
32614;DHT22;19031;51.400;6.770;2023-09-19T11:39:37;24.80;92.40
32614;DHT22;19031;51.400;6.770;2023-09-19T11:42:44;25.00;91.50
32614;DHT22;19031;51.400;6.770;2023-09-19T11:48:05;24.90;89.40
32614;DHT22;19031;51.400;6.770;2023-09-19T11:50:32;24.70;90.20
32614;DHT22;19031;51.400;6.770;2023-09-19T11:53:00;25.10;91.40
32614;DHT22;19031;51.400;6.770;2023-09-19T11:55:28;25.60;88.30
32614;DHT22;19031;51.400;6.770;2023-09-19T11:57:58;25.70;87.50
32614;DHT22;19031;51.400;6.770;2023-09-19T12:00:24;25.70;86.20
32614;DHT22;19031;51.400;6.770;2023-09-19T12:02:55;25.70;85.60
32614;DHT22;19031;51.400;6.770;2023-09-19T12:05:30;25.70;84.50
32614;DHT22;19031;51.400;6.770;2023-09-19T12:07:59;26.00;84.30
32614;DHT22;19031;51.400;6.770;2023-09-19T12:10:24;26.20;82.10
32614;DHT22;19031;51.400;6.770;2023-09-19T12:12:50;26.60;79.70
32614;DHT22;19031;51.400;6.770;2023-09-19T12:15:23;26.60;79.50
32614;DHT22;19031;51.400;6.770;2023-09-19T12:17:54;26.80;79.20
32614;DHT22;19031;51.400;6.770;2023-09-19T12:20:20;27.20;76.10
32614;DHT22;19031;51.400;6.770;2023-09-19T12:22:47;27.20;74.10
32614;DHT22;19031;51.400;6.770;2023-09-19T12:25:13;27.10;73.30
32614;DHT22;19031;51.400;6.770;2023-09-19T12:27:45;27.30;76.40
32614;DHT22;19031;51.400;6.770;2023-09-19T12:30:18;27.80;73.60
32614;DHT22;19031;51.400;6.770;2023-09-19T12:32:44;27.90;71.00
32614;DHT22;19031;51.400;6.770;2023-09-19T12:35:35;28.10;72.50
32614;DHT22;19031;51.400;6.770;2023-09-19T12:38:01;28.40;70.30
32614;DHT22;19031;51.400;6.770;2023-09-19T12:40:28;28.00;68.60
32614;DHT22;19031;51.400;6.770;2023-09-19T12:42:59;27.60;71.40
32614;DHT22;19031;51.400;6.770;2023-09-19T12:45:26;27.20;69.60
32614;DHT22;19031;51.400;6.770;2023-09-19T12:48:24;27.50;69.80
32614;DHT22;19031;51.400;6.770;2023-09-19T12:51:06;28.10;70.90
32614;DHT22;19031;51.400;6.770;2023-09-19T12:53:37;27.30;70.00
32614;DHT22;19031;51.400;6.770;2023-09-19T12:56:07;27.60;71.80
32614;DHT22;19031;51.400;6.770;2023-09-19T12:58:54;27.60;69.20
32614;DHT22;19031;51.400;6.770;2023-09-19T13:01:21;27.50;67.90
32614;DHT22;19031;51.400;6.770;2023-09-19T13:04:15;27.30;69.40
32614;DHT22;19031;51.400;6.770;2023-09-19T13:06:53;27.40;70.10
32614;DHT22;19031;51.400;6.770;2023-09-19T13:09:22;26.70;68.80
32614;DHT22;19031;51.400;6.770;2023-09-19T13:12:00;26.30;72.20
32614;DHT22;19031;51.400;6.770;2023-09-19T13:14:33;25.70;73.50
32614;DHT22;19031;51.400;6.770;2023-09-19T13:17:09;25.10;76.10
32614;DHT22;19031;51.400;6.770;2023-09-19T13:19:49;24.60;76.80
32614;DHT22;19031;51.400;6.770;2023-09-19T13:22:41;24.50;79.70
32614;DHT22;19031;51.400;6.770;2023-09-19T13:25:13;24.40;79.30
32614;DHT22;19031;51.400;6.770;2023-09-19T13:27:53;23.90;83.00
32614;DHT22;19031;51.400;6.770;2023-09-19T13:30:23;24.00;82.80
32614;DHT22;19031;51.400;6.770;2023-09-19T13:33:08;23.50;84.20
32614;DHT22;19031;51.400;6.770;2023-09-19T13:35:35;23.20;86.20
32614;DHT22;19031;51.400;6.770;2023-09-19T13:38:05;22.90;88.50
32614;DHT22;19031;51.400;6.770;2023-09-19T13:40:35;22.70;90.90
32614;DHT22;19031;51.400;6.770;2023-09-19T13:43:04;22.40;91.20
32614;DHT22;19031;51.400;6.770;2023-09-19T13:45:32;21.90;91.50
32614;DHT22;19031;51.400;6.770;2023-09-19T13:48:00;21.60;93.20
32614;DHT22;19031;51.400;6.770;2023-09-19T13:50:26;21.60;94.40
32614;DHT22;19031;51.400;6.770;2023-09-19T13:52:54;21.50;94.90
32614;DHT22;19031;51.400;6.770;2023-09-19T13:55:20;21.40;95.70
32614;DHT22;19031;51.400;6.770;2023-09-19T13:57:47;21.30;96.40
32614;DHT22;19031;51.400;6.770;2023-09-19T14:00:21;21.10;96.30
32614;DHT22;19031;51.400;6.770;2023-09-19T14:02:51;21.10;97.30
32614;DHT22;19031;51.400;6.770;2023-09-19T14:05:17;21.10;97.70
32614;DHT22;19031;51.400;6.770;2023-09-19T14:07:47;21.30;98.10
32614;DHT22;19031;51.400;6.770;2023-09-19T14:10:13;21.60;97.20
32614;DHT22;19031;51.400;6.770;2023-09-19T14:12:39;21.50;97.80
32614;DHT22;19031;51.400;6.770;2023-09-19T14:15:08;21.40;97.50
32614;DHT22;19031;51.400;6.770;2023-09-19T14:17:43;21.30;98.10
32614;DHT22;19031;51.400;6.770;2023-09-19T14:20:20;21.10;98.70
32614;DHT22;19031;51.400;6.770;2023-09-19T14:22:50;21.00;99.70
32614;DHT22;19031;51.400;6.770;2023-09-19T14:25:16;21.10;99.30
32614;DHT22;19031;51.400;6.770;2023-09-19T14:27:46;21.20;99.90
32614;DHT22;19031;51.400;6.770;2023-09-19T14:30:15;21.10;99.90
32614;DHT22;19031;51.400;6.770;2023-09-19T14:32:41;21.20;99.90
32614;DHT22;19031;51.400;6.770;2023-09-19T14:35:10;21.40;99.90
32614;DHT22;19031;51.400;6.770;2023-09-19T14:37:36;21.20;99.80
32614;DHT22;19031;51.400;6.770;2023-09-19T14:40:04;21.20;99.70
32614;DHT22;19031;51.400;6.770;2023-09-19T14:42:41;21.40;99.90
32614;DHT22;19031;51.400;6.770;2023-09-19T14:45:12;21.30;99.90
32614;DHT22;19031;51.400;6.770;2023-09-19T14:47:37;21.20;99.90
32614;DHT22;19031;51.400;6.770;2023-09-19T14:50:06;21.20;99.90
32614;DHT22;19031;51.400;6.770;2023-09-19T14:52:33;21.10;99.90
32614;DHT22;19031;51.400;6.770;2023-09-19T14:55:02;21.00;99.90
32614;DHT22;19031;51.400;6.770;2023-09-19T14:57:33;21.00;99.90
32614;DHT22;19031;51.400;6.770;2023-09-19T14:59:58;20.90;99.90
32614;DHT22;19031;51.400;6.770;2023-09-19T15:02:30;21.00;99.90
32614;DHT22;19031;51.400;6.770;2023-09-19T15:05:02;21.10;99.90
32614;DHT22;19031;51.400;6.770;2023-09-19T15:07:31;21.00;99.90
32614;DHT22;19031;51.400;6.770;2023-09-19T15:09:57;20.90;99.90
32614;DHT22;19031;51.400;6.770;2023-09-19T15:12:23;21.00;99.90
32614;DHT22;19031;51.400;6.770;2023-09-19T15:14:57;20.80;99.90
32614;DHT22;19031;51.400;6.770;2023-09-19T15:17:22;20.70;99.90
32614;DHT22;19031;51.400;6.770;2023-09-19T15:19:53;20.60;99.90
32614;DHT22;19031;51.400;6.770;2023-09-19T15:22:19;20.60;99.90
32614;DHT22;19031;51.400;6.770;2023-09-19T15:24:48;20.60;99.90
32614;DHT22;19031;51.400;6.770;2023-09-19T15:27:13;20.70;99.90
32614;DHT22;19031;51.400;6.770;2023-09-19T15:29:42;20.60;99.90
32614;DHT22;19031;51.400;6.770;2023-09-19T15:32:07;20.80;99.90
32614;DHT22;19031;51.400;6.770;2023-09-19T15:34:33;21.20;99.90
32614;DHT22;19031;51.400;6.770;2023-09-19T15:37:01;21.50;99.90
32614;DHT22;19031;51.400;6.770;2023-09-19T15:39:32;21.50;99.90
32614;DHT22;19031;51.400;6.770;2023-09-19T15:42:03;21.70;99.90
32614;DHT22;19031;51.400;6.770;2023-09-19T15:44:28;21.60;99.90
32614;DHT22;19031;51.400;6.770;2023-09-19T15:46:54;21.80;99.90
32614;DHT22;19031;51.400;6.770;2023-09-19T15:49:19;21.80;99.90
32614;DHT22;19031;51.400;6.770;2023-09-19T15:51:46;22.00;99.90
32614;DHT22;19031;51.400;6.770;2023-09-19T15:54:15;22.10;99.90
32614;DHT22;19031;51.400;6.770;2023-09-19T15:56:45;21.80;99.90
32614;DHT22;19031;51.400;6.770;2023-09-19T15:59:14;21.60;99.90
32614;DHT22;19031;51.400;6.770;2023-09-19T16:01:41;21.40;99.90
32614;DHT22;19031;51.400;6.770;2023-09-19T16:04:10;21.10;99.90
32614;DHT22;19031;51.400;6.770;2023-09-19T16:06:39;21.00;99.90
32614;DHT22;19031;51.400;6.770;2023-09-19T16:09:29;20.90;99.90
32614;DHT22;19031;51.400;6.770;2023-09-19T16:11:54;20.70;99.90
32614;DHT22;19031;51.400;6.770;2023-09-19T16:14:23;20.60;99.90
32614;DHT22;19031;51.400;6.770;2023-09-19T16:16:49;20.60;99.90
32614;DHT22;19031;51.400;6.770;2023-09-19T16:19:15;20.50;99.90